Nord Angel — 3FEP6 — position and weather

sailwx.info

Track history (hours):
 
Tides and Currents Weather Stations Pressure Air Temp Water Temp Dewpoint Dewpoint Depression Visibility Wind Speed Wind Dir Waves Ship Positions

Nord Angel

Last reported at 2017-Oct-23 01:14 UTC. Time now 2017-Oct-23 02:46 UTC.
Position N 57°50' E 010°12'.

Length 190 m; draft 12.6 m.

Type: Cargo ship. MMSI: 371326000.

Date/timePositionNaut miles runAvg speedWind from/ knotsBaromVisibWave heightAir tempDewpointWater temp
2017-Oct-23 01:14N 57°50' E 010°12'311.8
2017-Oct-23 01:01N 57°50' E 010°17'611.7
2017-Oct-23 00:29N 57°50' E 010°28'611.7
2017-Oct-23 00:00N 57°49' E 010°39'611.8
2017-Oct-22 23:30N 57°48' E 010°50'612.5
2017-Oct-22 22:59N 57°44' E 010°58'612.6
2017-Oct-22 22:29N 57°39' E 011°07'612.8
2017-Oct-22 22:00N 57°35' E 011°15'612.6
2017-Oct-22 21:31N 57°30' E 011°23'612.3
2017-Oct-22 21:00N 57°25' E 011°29'612.7
2017-Oct-22 20:30N 57°19' E 011°33'612.4
2017-Oct-22 19:59N 57°13' E 011°37'612.3
2017-Oct-22 19:30N 57°07' E 011°40'10710.4
2017-Oct-22 09:08N 55°22' E 011°02'111.0
2017-Oct-22 09:00N 55°21' E 011°02'510.2
2017-Oct-22 08:30N 55°16' E 011°05'4 8.6
2017-Oct-22 08:00N 55°12' E 011°04'5 9.3
2017-Oct-22 07:30N 55°08' E 010°59'611.3
2017-Oct-22 07:00N 55°02' E 010°60'611.5
2017-Oct-22 06:30N 54°57' E 010°55'612.8
2017-Oct-22 06:01N 54°51' E 010°50'612.3
2017-Oct-22 05:31N 54°45' E 010°48'5 9.4
2017-Oct-22 05:00N 54°41' E 010°47'611.3
2017-Oct-22 04:30N 54°38' E 010°56'611.9
2017-Oct-22 04:01N 54°36' E 011°06'612.2
2017-Oct-22 03:30N 54°35' E 011°16'612.3
2017-Oct-22 03:01N 54°32' E 011°25'612.2
2017-Oct-22 02:31N 54°29' E 011°35'611.6
2017-Oct-22 02:01N 54°27' E 011°44'611.2
2017-Oct-22 01:30N 54°26' E 011°53'611.3
2017-Oct-22 01:01N 54°26' E 012°03'510.0
2017-Oct-22 00:29N 54°28' E 012°12'611.7
2017-Oct-22 00:00N 54°33' E 012°15'611.1
2017-Oct-21 23:30N 54°38' E 012°19'611.1
2017-Oct-21 22:57N 54°42' E 012°27'511.0
2017-Oct-21 22:30N 54°44' E 012°34'611.1
2017-Oct-21 22:00N 54°47' E 012°43'611.3
2017-Oct-21 21:29N 54°49' E 012°52'711.9
2017-Oct-21 20:54N 54°52' E 013°03'612.1
2017-Oct-21 20:23N 54°54' E 013°13'1811.8
2017-Oct-21 18:51N 54°60' E 013°43'511.5
2017-Oct-21 18:26N 55°01' E 013°51'611.7
2017-Oct-21 17:56N 55°03' E 014°01'611.5
2017-Oct-21 17:27N 55°07' E 014°08'911.8
2017-Oct-21 16:43N 55°13' E 014°18'512.1
2017-Oct-21 16:20N 55°17' E 014°23'412.1
2017-Oct-21 16:00N 55°20' E 014°27'612.2
2017-Oct-21 15:30N 55°25' E 014°33'912.0
2017-Oct-21 14:45N 55°30' E 014°47'912.4
2017-Oct-21 14:00N 55°34' E 015°02'612.5
2017-Oct-21 13:30N 55°37' E 015°12'612.2
2017-Oct-21 13:00N 55°38' E 015°22'612.2
2017-Oct-21 12:30N 55°40' E 015°33'612.5
2017-Oct-21 12:00N 55°41' E 015°43'612.4
2017-Oct-21 11:31N 55°43' E 015°54'612.4
2017-Oct-21 11:01N 55°45' E 016°05'612.4
2017-Oct-21 10:30N 55°46' E 016°15'612.3
2017-Oct-21 10:00N 55°48' E 016°26'612.2
2017-Oct-21 09:30N 55°49' E 016°37'612.2
2017-Oct-21 09:01N 55°51' E 016°47'29011.5
2017-Oct-20 07:41N 59°32' E 022°39'612.4
2017-Oct-20 07:10N 59°34' E 022°51'212.3
2017-Oct-20 07:00N 59°34' E 022°55'612.4
2017-Oct-20 06:30N 59°36' E 023°07'612.4
2017-Oct-20 06:00N 59°38' E 023°18'612.2
2017-Oct-20 05:30N 59°39' E 023°30'612.1
2017-Oct-20 05:01N 59°41' E 023°41'612.0
2017-Oct-20 04:30N 59°43' E 023°53'612.2
2017-Oct-20 04:00N 59°44' E 024°05'612.2
2017-Oct-20 03:30N 59°46' E 024°16'612.1
2017-Oct-20 03:01N 59°47' E 024°28'612.0
2017-Oct-20 02:30N 59°49' E 024°40'612.1
2017-Oct-20 02:00N 59°50' E 024°51'612.1
2017-Oct-20 01:30N 59°51' E 025°03'3411.9
2017-Oct-19 22:37N 60°00' E 026°10'212.2
2017-Oct-19 22:29N 60°01' E 026°12'612.0
2017-Oct-19 22:00N 60°05' E 026°21'5 9.8
2017-Oct-19 21:30N 60°08' E 026°29'0 0.6
2017-Oct-19 20:59N 60°08' E 026°29'0 0.1
2017-Oct-19 20:30N 60°08' E 026°29'0 0.0
2017-Oct-19 19:59N 60°08' E 026°29'0 0.1
2017-Oct-19 19:29N 60°08' E 026°29'0 0.0
2017-Oct-19 18:59N 60°08' E 026°29'0 0.0
2017-Oct-19 18:29N 60°08' E 026°29'0 0.1
2017-Oct-19 17:59N 60°08' E 026°29'0 0.0
2017-Oct-19 17:29N 60°08' E 026°29'0 0.0
2017-Oct-19 16:59N 60°08' E 026°29'0 0.0
2017-Oct-19 16:29N 60°08' E 026°29'0 0.1
2017-Oct-19 15:59N 60°08' E 026°29'0 0.0
2017-Oct-19 15:29N 60°08' E 026°29'0 0.0
2017-Oct-19 14:59N 60°08' E 026°29'0 0.1
2017-Oct-19 14:29N 60°08' E 026°29'0 0.3
2017-Oct-19 13:59N 60°08' E 026°29'0 0.0
2017-Oct-19 13:29N 60°08' E 026°29'0 0.1
2017-Oct-19 12:59N 60°08' E 026°29'0 0.0
2017-Oct-19 12:29N 60°08' E 026°29'0 0.0
2017-Oct-19 11:59N 60°08' E 026°29'0 0.0
2017-Oct-19 11:29N 60°08' E 026°29'0 0.0
2017-Oct-19 10:59N 60°08' E 026°29'0 0.0
2017-Oct-19 10:29N 60°08' E 026°29'0 0.0
2017-Oct-19 09:59N 60°08' E 026°29'0 0.0
2017-Oct-19 09:29N 60°08' E 026°29'0 0.0
2017-Oct-19 08:59N 60°08' E 026°29'0 0.0
2017-Oct-19 08:29N 60°08' E 026°29'0 0.0
2017-Oct-19 07:59N 60°08' E 026°29'0 0.3
2017-Oct-19 07:29N 60°08' E 026°29'0 0.2
2017-Oct-19 06:59N 60°08' E 026°29'0 0.0
2017-Oct-19 06:29N 60°08' E 026°29'0 0.1
2017-Oct-19 05:59N 60°08' E 026°29'0 0.0
2017-Oct-19 05:29N 60°08' E 026°29'0 0.0
2017-Oct-19 04:59N 60°08' E 026°29'0 0.0
2017-Oct-19 04:29N 60°08' E 026°29'0 0.0
2017-Oct-19 03:59N 60°08' E 026°29'0 0.0
2017-Oct-19 03:29N 60°08' E 026°29'0 0.0
2017-Oct-19 02:59N 60°08' E 026°29'0 0.0
2017-Oct-19 02:29N 60°08' E 026°29'0 0.0
2017-Oct-19 01:59N 60°08' E 026°29'0 0.0
2017-Oct-19 01:29N 60°08' E 026°29'0 0.0
2017-Oct-19 00:59N 60°08' E 026°29'0 0.0
2017-Oct-19 00:29N 60°08' E 026°29'0 0.0
2017-Oct-18 23:59N 60°08' E 026°29'0 0.0
2017-Oct-18 23:29N 60°08' E 026°29'0 0.0
2017-Oct-18 22:59N 60°08' E 026°29'0 0.0
2017-Oct-18 22:29N 60°08' E 026°29'0 0.0
2017-Oct-18 21:59N 60°08' E 026°29'0 0.0
2017-Oct-18 21:29N 60°08' E 026°29'0 0.0
2017-Oct-18 21:00N 60°08' E 026°29'0 0.0
2017-Oct-18 20:29N 60°08' E 026°29'0 0.0
2017-Oct-18 19:59N 60°08' E 026°29'0 0.0
2017-Oct-18 19:29N 60°08' E 026°29'0 0.0
2017-Oct-18 18:59N 60°08' E 026°29'0 0.0
2017-Oct-18 18:29N 60°08' E 026°29'0 0.0
2017-Oct-18 17:59N 60°08' E 026°29'0 0.0
2017-Oct-18 17:29N 60°08' E 026°29'0 0.0
2017-Oct-18 16:59N 60°08' E 026°29'0 0.1
2017-Oct-18 16:29N 60°08' E 026°29'0 0.0
2017-Oct-18 15:59N 60°08' E 026°29'0 0.0
2017-Oct-18 15:29N 60°08' E 026°29'0 0.0
2017-Oct-18 14:59N 60°08' E 026°29'0 0.0
2017-Oct-18 13:59N 60°08' E 026°29'0 0.0
2017-Oct-18 13:29N 60°08' E 026°29'0 0.0
2017-Oct-18 12:59N 60°08' E 026°29'0 0.0
2017-Oct-18 12:29N 60°08' E 026°29'0 0.0
2017-Oct-18 11:59N 60°08' E 026°29'0 0.0
2017-Oct-18 11:29N 60°08' E 026°29'0 0.0
2017-Oct-18 10:59N 60°08' E 026°29'0 0.0
2017-Oct-18 10:29N 60°08' E 026°29'0 0.0
2017-Oct-18 09:59N 60°08' E 026°29'0 0.1
2017-Oct-18 09:29N 60°08' E 026°29'0 0.0
2017-Oct-18 08:59N 60°08' E 026°29'0 0.0
2017-Oct-18 08:29N 60°08' E 026°29'0 0.0
2017-Oct-18 07:59N 60°08' E 026°29'0 0.0
2017-Oct-18 07:29N 60°08' E 026°29'0 0.0
2017-Oct-18 06:59N 60°08' E 026°29'0 0.0
2017-Oct-18 06:29N 60°08' E 026°29'0 0.1
2017-Oct-18 05:59N 60°08' E 026°29'0 0.0
2017-Oct-18 05:29N 60°08' E 026°29'0 0.0
2017-Oct-18 04:59N 60°08' E 026°29'0 0.0
2017-Oct-18 04:29N 60°08' E 026°29'0 0.0
2017-Oct-18 03:59N 60°08' E 026°29'0 0.0
2017-Oct-18 03:29N 60°08' E 026°29'0 0.0
2017-Oct-18 02:59N 60°08' E 026°29'0 0.0
2017-Oct-18 02:29N 60°08' E 026°29'0 0.0
2017-Oct-18 01:59N 60°08' E 026°29'0 0.0
2017-Oct-18 01:29N 60°08' E 026°29'0 0.0
2017-Oct-18 00:59N 60°08' E 026°29'0 0.0
2017-Oct-18 00:29N 60°08' E 026°29'0 0.0
2017-Oct-17 23:59N 60°08' E 026°29'0 0.0
2017-Oct-17 23:29N 60°08' E 026°29'0 0.0
2017-Oct-17 22:59N 60°08' E 026°29'0 0.0
2017-Oct-17 22:29N 60°08' E 026°29'0 0.0
2017-Oct-17 21:59N 60°08' E 026°29'0 0.0
2017-Oct-17 21:29N 60°08' E 026°29'0 0.0
2017-Oct-17 20:59N 60°08' E 026°29'0 0.0
2017-Oct-17 20:29N 60°08' E 026°29'0 0.0
2017-Oct-17 19:59N 60°08' E 026°29'0 0.0
2017-Oct-17 19:29N 60°08' E 026°29'0 0.0
2017-Oct-17 18:59N 60°08' E 026°29'0 0.0
2017-Oct-17 18:29N 60°08' E 026°29'0 0.0
2017-Oct-17 17:59N 60°08' E 026°29'0 0.1
2017-Oct-17 17:29N 60°08' E 026°29'0 0.1
2017-Oct-17 16:59N 60°08' E 026°29'0 0.1
2017-Oct-17 16:29N 60°08' E 026°29'0 0.1
2017-Oct-17 15:59N 60°08' E 026°29'0 0.0
2017-Oct-17 15:29N 60°08' E 026°29'0 0.0
2017-Oct-17 14:59N 60°08' E 026°29'0 0.1
2017-Oct-17 14:29N 60°08' E 026°29'0 0.0
2017-Oct-17 13:59N 60°08' E 026°29'0 0.0
2017-Oct-17 13:29N 60°08' E 026°29'0 0.1
2017-Oct-17 12:59N 60°08' E 026°29'0 0.0
2017-Oct-17 12:29N 60°08' E 026°29'0 0.0
2017-Oct-17 11:59N 60°08' E 026°29'0 0.0
2017-Oct-17 11:29N 60°08' E 026°29'0 0.0
2017-Oct-17 10:59N 60°08' E 026°29'0 0.0
2017-Oct-17 10:29N 60°08' E 026°29'0 0.0
2017-Oct-17 09:59N 60°08' E 026°29'0 0.0
2017-Oct-17 09:29N 60°08' E 026°29'0 0.0
2017-Oct-17 08:59N 60°08' E 026°29'0 0.0
2017-Oct-17 08:29N 60°08' E 026°29'0 0.0
2017-Oct-17 07:59N 60°08' E 026°29'0 0.0
2017-Oct-17 07:29N 60°08' E 026°29'0 0.0
2017-Oct-17 06:59N 60°08' E 026°29'0 0.0
2017-Oct-17 06:29N 60°08' E 026°29'0 0.0
2017-Oct-17 05:59N 60°08' E 026°29'0 0.0
2017-Oct-17 05:29N 60°08' E 026°29'0 0.0
2017-Oct-17 04:59N 60°08' E 026°29'0 0.0
2017-Oct-17 04:29N 60°08' E 026°29'0 0.0
2017-Oct-17 03:59N 60°08' E 026°29'0 0.0
2017-Oct-17 03:29N 60°08' E 026°29'0 0.0
2017-Oct-17 02:59N 60°08' E 026°29'0 0.0
2017-Oct-17 02:29N 60°08' E 026°29'0 0.0
2017-Oct-17 01:59N 60°08' E 026°29'0 0.0
2017-Oct-17 01:29N 60°08' E 026°29'0 0.0
2017-Oct-17 00:59N 60°08' E 026°29'0 0.0
2017-Oct-17 00:29N 60°08' E 026°29'0 0.0
2017-Oct-16 23:59N 60°08' E 026°29'0 0.0
2017-Oct-16 23:29N 60°08' E 026°29'0 0.0
2017-Oct-16 22:59N 60°08' E 026°29'0 0.0
2017-Oct-16 22:29N 60°08' E 026°29'0 0.0
2017-Oct-16 21:59N 60°08' E 026°29'0 0.0
2017-Oct-16 21:29N 60°08' E 026°29'0 0.0
2017-Oct-16 20:59N 60°08' E 026°29'0 0.0
2017-Oct-16 20:29N 60°08' E 026°29'0 0.0
2017-Oct-16 19:59N 60°08' E 026°29'0 0.0
2017-Oct-16 19:29N 60°08' E 026°29'0 0.0
2017-Oct-16 18:59N 60°08' E 026°29'0 0.0
2017-Oct-16 18:29N 60°08' E 026°29'0 0.0
2017-Oct-16 17:59N 60°08' E 026°29'0 0.0
2017-Oct-16 17:29N 60°08' E 026°29'0 0.0
2017-Oct-16 16:59N 60°08' E 026°29'0 0.1
2017-Oct-16 16:29N 60°08' E 026°29'0 0.0
2017-Oct-16 15:59N 60°08' E 026°29'0 0.0
2017-Oct-16 15:29N 60°08' E 026°29'0 0.0
2017-Oct-16 14:59N 60°08' E 026°29'0 0.0
2017-Oct-16 13:59N 60°08' E 026°29'0 0.0
2017-Oct-16 13:29N 60°08' E 026°29'0 0.0
2017-Oct-16 12:59N 60°08' E 026°29'0 0.0
2017-Oct-16 12:29N 60°08' E 026°29'0 0.0
2017-Oct-16 11:59N 60°08' E 026°29'0 0.0
2017-Oct-16 11:29N 60°08' E 026°29'0 0.0
2017-Oct-16 10:59N 60°08' E 026°29'0 0.0
2017-Oct-16 10:29N 60°08' E 026°29'0 0.0
2017-Oct-16 09:59N 60°08' E 026°29'0 0.0
2017-Oct-16 09:29N 60°08' E 026°29'0 0.0
2017-Oct-16 08:59N 60°08' E 026°29'0 0.0
2017-Oct-16 08:29N 60°08' E 026°29'0 0.0
2017-Oct-16 07:59N 60°08' E 026°29'0 0.0
2017-Oct-16 07:29N 60°08' E 026°29'0 0.0
2017-Oct-16 06:59N 60°08' E 026°29'0 0.0
2017-Oct-16 06:29N 60°08' E 026°29'0 0.0
2017-Oct-16 05:59N 60°08' E 026°28'0 0.0
2017-Oct-16 05:29N 60°08' E 026°28'0 0.1
2017-Oct-16 04:59N 60°08' E 026°28'0 0.1
2017-Oct-16 04:29N 60°08' E 026°28'0 0.0
2017-Oct-16 03:59N 60°08' E 026°28'0 0.1
2017-Oct-16 03:29N 60°08' E 026°28'0 0.1
2017-Oct-16 02:59N 60°08' E 026°29'0 0.0
2017-Oct-16 02:29N 60°08' E 026°29'0 0.1
2017-Oct-16 01:59N 60°08' E 026°29'0 0.0
2017-Oct-16 01:29N 60°08' E 026°29'0 0.0
2017-Oct-16 00:59N 60°08' E 026°29'0 0.1
2017-Oct-16 00:29N 60°08' E 026°29'0 0.1
2017-Oct-15 23:59N 60°08' E 026°29'0 0.0
2017-Oct-15 23:29N 60°08' E 026°29'0 0.0
2017-Oct-15 22:59N 60°08' E 026°29'0 0.2
2017-Oct-15 22:29N 60°08' E 026°29'0 0.2
2017-Oct-15 21:59N 60°08' E 026°28'0 0.3
2017-Oct-15 21:29N 60°08' E 026°29'0 0.0
2017-Oct-15 20:59N 60°08' E 026°29'0 0.0
2017-Oct-15 20:29N 60°08' E 026°29'0 0.1
2017-Oct-15 20:00N 60°08' E 026°29'0 0.0
2017-Oct-15 19:29N 60°08' E 026°29'0 0.0
2017-Oct-15 18:59N 60°08' E 026°29'0 0.0
2017-Oct-15 18:29N 60°08' E 026°29'0 0.0
2017-Oct-15 17:59N 60°08' E 026°29'0 0.0
2017-Oct-15 17:29N 60°08' E 026°29'0 0.0
2017-Oct-15 16:59N 60°08' E 026°29'0 0.0
2017-Oct-15 16:29N 60°08' E 026°29'0 0.0
2017-Oct-15 15:59N 60°08' E 026°29'0 0.0
2017-Oct-15 15:29N 60°08' E 026°29'0 0.0
2017-Oct-15 14:59N 60°08' E 026°29'0 0.0
2017-Oct-15 13:59N 60°08' E 026°29'0 0.0
2017-Oct-15 13:29N 60°08' E 026°29'0 0.0
2017-Oct-15 12:59N 60°08' E 026°29'0 0.0
2017-Oct-15 12:29N 60°08' E 026°29'0 0.1
2017-Oct-15 11:59N 60°08' E 026°29'0 0.0
2017-Oct-15 11:29N 60°08' E 026°29'0 0.0
2017-Oct-15 10:59N 60°08' E 026°29'0 0.0
2017-Oct-15 10:29N 60°08' E 026°29'0 0.0
2017-Oct-15 09:59N 60°08' E 026°29'0 0.0
2017-Oct-15 09:29N 60°08' E 026°29'0 0.0
2017-Oct-15 08:59N 60°08' E 026°29'0 0.0
2017-Oct-15 08:29N 60°08' E 026°29'0 0.0
2017-Oct-15 07:59N 60°08' E 026°29'0 0.0
2017-Oct-15 07:29N 60°08' E 026°29'0 0.0
2017-Oct-15 06:59N 60°08' E 026°29'0 0.0
2017-Oct-15 06:29N 60°08' E 026°29'0 0.0
2017-Oct-15 05:59N 60°08' E 026°29'0 0.0
2017-Oct-15 05:29N 60°08' E 026°29'0 0.0
2017-Oct-15 04:59N 60°08' E 026°29'0 0.0
2017-Oct-15 04:29N 60°08' E 026°29'0 0.0
2017-Oct-15 03:59N 60°08' E 026°29'0 0.0
2017-Oct-15 03:29N 60°08' E 026°29'0 0.0
2017-Oct-15 02:59N 60°08' E 026°29'0 0.0
2017-Oct-15 02:29N 60°08' E 026°29'0 0.0
2017-Oct-15 01:59N 60°08' E 026°29'0 0.0
2017-Oct-15 01:29N 60°08' E 026°29'0 0.0
2017-Oct-15 00:59N 60°08' E 026°29'0 0.0
2017-Oct-15 00:29N 60°08' E 026°29'0 0.0
2017-Oct-14 23:59N 60°08' E 026°29'0 0.0
2017-Oct-14 23:29N 60°08' E 026°29'0 0.0
2017-Oct-14 22:59N 60°08' E 026°29'0 0.0
2017-Oct-14 22:20N 60°08' E 026°29'0 0.0
2017-Oct-14 21:59N 60°08' E 026°29'0 0.1
2017-Oct-14 21:29N 60°08' E 026°29'0 0.1
2017-Oct-14 20:59N 60°08' E 026°29'0 0.2
2017-Oct-14 20:29N 60°08' E 026°28'0 0.1
2017-Oct-14 19:59N 60°08' E 026°28'0 0.0
2017-Oct-14 19:29N 60°08' E 026°28'0 0.0
2017-Oct-14 18:56N 60°08' E 026°28'0 0.0
2017-Oct-14 18:29N 60°08' E 026°28'0 0.0
2017-Oct-14 17:59N 60°08' E 026°28'0 0.0
2017-Oct-14 17:29N 60°08' E 026°28'0 0.0
2017-Oct-14 16:59N 60°08' E 026°28'0 0.0
2017-Oct-14 16:29N 60°08' E 026°28'0 0.0
2017-Oct-14 15:59N 60°08' E 026°28'0 0.0
2017-Oct-14 15:29N 60°08' E 026°28'0 0.0
2017-Oct-14 14:56N 60°08' E 026°28'0 0.0
2017-Oct-14 14:26N 60°08' E 026°28'0 0.0
2017-Oct-14 13:56N 60°08' E 026°28'0 0.0
2017-Oct-14 13:29N 60°08' E 026°28'0 0.0
2017-Oct-14 12:59N 60°08' E 026°28'0 0.0
2017-Oct-14 12:29N 60°08' E 026°28'0 0.0
2017-Oct-14 11:59N 60°08' E 026°28'0 0.1
2017-Oct-14 11:29N 60°08' E 026°28'0 0.0
2017-Oct-14 10:56N 60°08' E 026°28'0 0.0
2017-Oct-14 10:29N 60°08' E 026°28'0 0.0
2017-Oct-14 09:56N 60°08' E 026°28'0 0.1
2017-Oct-14 09:29N 60°08' E 026°28'0 0.1
2017-Oct-14 08:59N 60°08' E 026°28'0 0.1
2017-Oct-14 08:29N 60°08' E 026°28'0 0.0
2017-Oct-14 07:59N 60°08' E 026°28'0 0.1
2017-Oct-14 07:29N 60°08' E 026°28'0 0.0
2017-Oct-14 06:59N 60°08' E 026°28'0 0.0
2017-Oct-14 06:29N 60°08' E 026°28'0 0.0
2017-Oct-14 05:59N 60°08' E 026°28'0 0.0
2017-Oct-14 05:29N 60°08' E 026°28'0 0.0
2017-Oct-14 04:59N 60°08' E 026°28'0 0.0
2017-Oct-14 04:29N 60°08' E 026°28'0 0.0
2017-Oct-14 03:59N 60°08' E 026°28'0 0.0
2017-Oct-14 03:29N 60°08' E 026°28'0 0.0
2017-Oct-14 02:59N 60°08' E 026°28'0 0.0
2017-Oct-14 02:29N 60°08' E 026°28'0 0.0
2017-Oct-14 01:59N 60°08' E 026°28'0 0.0
2017-Oct-14 00:05N 60°08' E 026°28'0 0.0
2017-Oct-13 23:59N 60°08' E 026°28'0 0.0
2017-Oct-13 23:29N 60°08' E 026°28'0 0.0
2017-Oct-13 22:59N 60°08' E 026°28'0 0.0
2017-Oct-13 22:29N 60°08' E 026°28'0 0.0
2017-Oct-13 21:59N 60°08' E 026°28'0 0.0
2017-Oct-13 21:29N 60°08' E 026°28'0 0.0
2017-Oct-13 20:59N 60°08' E 026°28'0 0.0
2017-Oct-13 20:29N 60°08' E 026°28'0 0.0
2017-Oct-13 19:59N 60°08' E 026°28'0 0.0
2017-Oct-13 19:29N 60°08' E 026°28'0 0.0
2017-Oct-13 18:59N 60°08' E 026°28'0 0.0
2017-Oct-13 18:29N 60°08' E 026°28'0 0.0
2017-Oct-13 17:59N 60°08' E 026°28'0 0.0
2017-Oct-13 17:29N 60°08' E 026°28'0 0.0
2017-Oct-13 16:59N 60°08' E 026°28'0 0.0
2017-Oct-13 16:29N 60°08' E 026°28'0 0.0
2017-Oct-13 15:59N 60°08' E 026°28'0 0.0
2017-Oct-13 15:29N 60°08' E 026°28'0 0.0
2017-Oct-13 14:59N 60°08' E 026°28'0 0.0
2017-Oct-13 14:29N 60°08' E 026°28'0 0.0
2017-Oct-13 13:59N 60°08' E 026°28'0 0.0
2017-Oct-13 13:29N 60°08' E 026°28'0 0.0
2017-Oct-13 12:56N 60°08' E 026°28'0 0.0
2017-Oct-13 12:29N 60°08' E 026°28'0 0.0
2017-Oct-13 11:59N 60°08' E 026°28'0 0.0
2017-Oct-13 11:29N 60°08' E 026°28'0 0.0
2017-Oct-13 10:59N 60°08' E 026°28'0 0.0
2017-Oct-13 10:29N 60°08' E 026°28'0 0.0
2017-Oct-13 09:59N 60°08' E 026°28'0 0.0
2017-Oct-13 09:29N 60°08' E 026°28'0 0.0
2017-Oct-13 08:59N 60°08' E 026°28'0 0.0
2017-Oct-13 08:29N 60°08' E 026°28'0 0.0
2017-Oct-13 08:00N 60°08' E 026°28'0 0.0
2017-Oct-13 07:28N 60°08' E 026°28'0 0.0
2017-Oct-13 07:00N 60°08' E 026°28'0 0.0
2017-Oct-13 06:30N 60°08' E 026°28'0 0.0
2017-Oct-13 06:00N 60°08' E 026°28'0 0.0
2017-Oct-13 05:30N 60°08' E 026°28'0 0.0
2017-Oct-13 04:59N 60°08' E 026°28'0 0.0
2017-Oct-13 04:29N 60°08' E 026°28'0 0.0
2017-Oct-13 03:59N 60°08' E 026°28'0 0.0
2017-Oct-13 03:29N 60°08' E 026°28'  
Track history (hours):
 
Tides and Currents Weather Stations Pressure Air Temp Water Temp Dewpoint Dewpoint Depression Visibility Wind Speed Wind Dir Waves Ship Positions

Nord Angel

Last reported at 2017-Oct-23 01:14 UTC. Time now 2017-Oct-23 02:46 UTC.
Position N 57°50' E 010°12'.

Length 190 m; draft 12.6 m.

Type: Cargo ship. MMSI: 371326000.

Date/timePositionNaut miles runAvg speedWind from/ knotsBaromVisibWave heightAir tempDewpointWater temp
2017-Oct-23 01:14N 57°50' E 010°12'311.8
2017-Oct-23 01:01N 57°50' E 010°17'611.7
2017-Oct-23 00:29N 57°50' E 010°28'611.7
2017-Oct-23 00:00N 57°49' E 010°39'611.8
2017-Oct-22 23:30N 57°48' E 010°50'612.5
2017-Oct-22 22:59N 57°44' E 010°58'612.6
2017-Oct-22 22:29N 57°39' E 011°07'612.8
2017-Oct-22 22:00N 57°35' E 011°15'612.6
2017-Oct-22 21:31N 57°30' E 011°23'612.3
2017-Oct-22 21:00N 57°25' E 011°29'612.7
2017-Oct-22 20:30N 57°19' E 011°33'612.4
2017-Oct-22 19:59N 57°13' E 011°37'612.3
2017-Oct-22 19:30N 57°07' E 011°40'10710.4
2017-Oct-22 09:08N 55°22' E 011°02'111.0
2017-Oct-22 09:00N 55°21' E 011°02'510.2
2017-Oct-22 08:30N 55°16' E 011°05'4 8.6
2017-Oct-22 08:00N 55°12' E 011°04'5 9.3
2017-Oct-22 07:30N 55°08' E 010°59'611.3
2017-Oct-22 07:00N 55°02' E 010°60'611.5
2017-Oct-22 06:30N 54°57' E 010°55'612.8
2017-Oct-22 06:01N 54°51' E 010°50'612.3
2017-Oct-22 05:31N 54°45' E 010°48'5 9.4
2017-Oct-22 05:00N 54°41' E 010°47'611.3
2017-Oct-22 04:30N 54°38' E 010°56'611.9
2017-Oct-22 04:01N 54°36' E 011°06'612.2
2017-Oct-22 03:30N 54°35' E 011°16'612.3
2017-Oct-22 03:01N 54°32' E 011°25'612.2
2017-Oct-22 02:31N 54°29' E 011°35'611.6
2017-Oct-22 02:01N 54°27' E 011°44'611.2
2017-Oct-22 01:30N 54°26' E 011°53'611.3
2017-Oct-22 01:01N 54°26' E 012°03'510.0
2017-Oct-22 00:29N 54°28' E 012°12'611.7
2017-Oct-22 00:00N 54°33' E 012°15'611.1
2017-Oct-21 23:30N 54°38' E 012°19'611.1
2017-Oct-21 22:57N 54°42' E 012°27'511.0
2017-Oct-21 22:30N 54°44' E 012°34'611.1
2017-Oct-21 22:00N 54°47' E 012°43'611.3
2017-Oct-21 21:29N 54°49' E 012°52'711.9
2017-Oct-21 20:54N 54°52' E 013°03'612.1
2017-Oct-21 20:23N 54°54' E 013°13'1811.8
2017-Oct-21 18:51N 54°60' E 013°43'511.5
2017-Oct-21 18:26N 55°01' E 013°51'611.7
2017-Oct-21 17:56N 55°03' E 014°01'611.5
2017-Oct-21 17:27N 55°07' E 014°08'911.8
2017-Oct-21 16:43N 55°13' E 014°18'512.1
2017-Oct-21 16:20N 55°17' E 014°23'412.1
2017-Oct-21 16:00N 55°20' E 014°27'612.2
2017-Oct-21 15:30N 55°25' E 014°33'912.0
2017-Oct-21 14:45N 55°30' E 014°47'912.4
2017-Oct-21 14:00N 55°34' E 015°02'612.5
2017-Oct-21 13:30N 55°37' E 015°12'612.2
2017-Oct-21 13:00N 55°38' E 015°22'612.2
2017-Oct-21 12:30N 55°40' E 015°33'612.5
2017-Oct-21 12:00N 55°41' E 015°43'612.4
2017-Oct-21 11:31N 55°43' E 015°54'612.4
2017-Oct-21 11:01N 55°45' E 016°05'612.4
2017-Oct-21 10:30N 55°46' E 016°15'612.3
2017-Oct-21 10:00N 55°48' E 016°26'612.2
2017-Oct-21 09:30N 55°49' E 016°37'612.2
2017-Oct-21 09:01N 55°51' E 016°47'29011.5
2017-Oct-20 07:41N 59°32' E 022°39'612.4
2017-Oct-20 07:10N 59°34' E 022°51'212.3
2017-Oct-20 07:00N 59°34' E 022°55'612.4
2017-Oct-20 06:30N 59°36' E 023°07'612.4
2017-Oct-20 06:00N 59°38' E 023°18'612.2
2017-Oct-20 05:30N 59°39' E 023°30'612.1
2017-Oct-20 05:01N 59°41' E 023°41'612.0
2017-Oct-20 04:30N 59°43' E 023°53'612.2
2017-Oct-20 04:00N 59°44' E 024°05'612.2
2017-Oct-20 03:30N 59°46' E 024°16'612.1
2017-Oct-20 03:01N 59°47' E 024°28'612.0
2017-Oct-20 02:30N 59°49' E 024°40'612.1
2017-Oct-20 02:00N 59°50' E 024°51'612.1
2017-Oct-20 01:30N 59°51' E 025°03'3411.9
2017-Oct-19 22:37N 60°00' E 026°10'212.2
2017-Oct-19 22:29N 60°01' E 026°12'612.0
2017-Oct-19 22:00N 60°05' E 026°21'5 9.8
2017-Oct-19 21:30N 60°08' E 026°29'0 0.6
2017-Oct-19 20:59N 60°08' E 026°29'0 0.1
2017-Oct-19 20:30N 60°08' E 026°29'0 0.0
2017-Oct-19 19:59N 60°08' E 026°29'0 0.1
2017-Oct-19 19:29N 60°08' E 026°29'0 0.0
2017-Oct-19 18:59N 60°08' E 026°29'0 0.0
2017-Oct-19 18:29N 60°08' E 026°29'0 0.1
2017-Oct-19 17:59N 60°08' E 026°29'0 0.0
2017-Oct-19 17:29N 60°08' E 026°29'0 0.0
2017-Oct-19 16:59N 60°08' E 026°29'0 0.0
2017-Oct-19 16:29N 60°08' E 026°29'0 0.1
2017-Oct-19 15:59N 60°08' E 026°29'0 0.0
2017-Oct-19 15:29N 60°08' E 026°29'0 0.0
2017-Oct-19 14:59N 60°08' E 026°29'0 0.1
2017-Oct-19 14:29N 60°08' E 026°29'0 0.3
2017-Oct-19 13:59N 60°08' E 026°29'0 0.0
2017-Oct-19 13:29N 60°08' E 026°29'0 0.1
2017-Oct-19 12:59N 60°08' E 026°29'0 0.0
2017-Oct-19 12:29N 60°08' E 026°29'0 0.0
2017-Oct-19 11:59N 60°08' E 026°29'0 0.0
2017-Oct-19 11:29N 60°08' E 026°29'0 0.0
2017-Oct-19 10:59N 60°08' E 026°29'0 0.0
2017-Oct-19 10:29N 60°08' E 026°29'0 0.0
2017-Oct-19 09:59N 60°08' E 026°29'0 0.0
2017-Oct-19 09:29N 60°08' E 026°29'0 0.0
2017-Oct-19 08:59N 60°08' E 026°29'0 0.0
2017-Oct-19 08:29N 60°08' E 026°29'0 0.0
2017-Oct-19 07:59N 60°08' E 026°29'0 0.3
2017-Oct-19 07:29N 60°08' E 026°29'0 0.2
2017-Oct-19 06:59N 60°08' E 026°29'0 0.0
2017-Oct-19 06:29N 60°08' E 026°29'0 0.1
2017-Oct-19 05:59N 60°08' E 026°29'0 0.0
2017-Oct-19 05:29N 60°08' E 026°29'0 0.0
2017-Oct-19 04:59N 60°08' E 026°29'0 0.0
2017-Oct-19 04:29N 60°08' E 026°29'0 0.0
2017-Oct-19 03:59N 60°08' E 026°29'0 0.0
2017-Oct-19 03:29N 60°08' E 026°29'0 0.0
2017-Oct-19 02:59N 60°08' E 026°29'0 0.0
2017-Oct-19 02:29N 60°08' E 026°29'0 0.0
2017-Oct-19 01:59N 60°08' E 026°29'0 0.0
2017-Oct-19 01:29N 60°08' E 026°29'0 0.0
2017-Oct-19 00:59N 60°08' E 026°29'0 0.0
2017-Oct-19 00:29N 60°08' E 026°29'0 0.0
2017-Oct-18 23:59N 60°08' E 026°29'0 0.0
2017-Oct-18 23:29N 60°08' E 026°29'0 0.0
2017-Oct-18 22:59N 60°08' E 026°29'0 0.0
2017-Oct-18 22:29N 60°08' E 026°29'0 0.0
2017-Oct-18 21:59N 60°08' E 026°29'0 0.0
2017-Oct-18 21:29N 60°08' E 026°29'0 0.0
2017-Oct-18 21:00N 60°08' E 026°29'0 0.0
2017-Oct-18 20:29N 60°08' E 026°29'0 0.0
2017-Oct-18 19:59N 60°08' E 026°29'0 0.0
2017-Oct-18 19:29N 60°08' E 026°29'0 0.0
2017-Oct-18 18:59N 60°08' E 026°29'0 0.0
2017-Oct-18 18:29N 60°08' E 026°29'0 0.0
2017-Oct-18 17:59N 60°08' E 026°29'0 0.0
2017-Oct-18 17:29N 60°08' E 026°29'0 0.0
2017-Oct-18 16:59N 60°08' E 026°29'0 0.1
2017-Oct-18 16:29N 60°08' E 026°29'0 0.0
2017-Oct-18 15:59N 60°08' E 026°29'0 0.0
2017-Oct-18 15:29N 60°08' E 026°29'0 0.0
2017-Oct-18 14:59N 60°08' E 026°29'0 0.0
2017-Oct-18 13:59N 60°08' E 026°29'0 0.0
2017-Oct-18 13:29N 60°08' E 026°29'0 0.0
2017-Oct-18 12:59N 60°08' E 026°29'0 0.0
2017-Oct-18 12:29N 60°08' E 026°29'0 0.0
2017-Oct-18 11:59N 60°08' E 026°29'0 0.0
2017-Oct-18 11:29N 60°08' E 026°29'0 0.0
2017-Oct-18 10:59N 60°08' E 026°29'0 0.0
2017-Oct-18 10:29N 60°08' E 026°29'0 0.0
2017-Oct-18 09:59N 60°08' E 026°29'0 0.1
2017-Oct-18 09:29N 60°08' E 026°29'0 0.0
2017-Oct-18 08:59N 60°08' E 026°29'0 0.0
2017-Oct-18 08:29N 60°08' E 026°29'0 0.0
2017-Oct-18 07:59N 60°08' E 026°29'0 0.0
2017-Oct-18 07:29N 60°08' E 026°29'0 0.0
2017-Oct-18 06:59N 60°08' E 026°29'0 0.0
2017-Oct-18 06:29N 60°08' E 026°29'0 0.1
2017-Oct-18 05:59N 60°08' E 026°29'0 0.0
2017-Oct-18 05:29N 60°08' E 026°29'0 0.0
2017-Oct-18 04:59N 60°08' E 026°29'0 0.0
2017-Oct-18 04:29N 60°08' E 026°29'0 0.0
2017-Oct-18 03:59N 60°08' E 026°29'0 0.0
2017-Oct-18 03:29N 60°08' E 026°29'0 0.0
2017-Oct-18 02:59N 60°08' E 026°29'0 0.0
2017-Oct-18 02:29N 60°08' E 026°29'0 0.0
2017-Oct-18 01:59N 60°08' E 026°29'0 0.0
2017-Oct-18 01:29N 60°08' E 026°29'0 0.0
2017-Oct-18 00:59N 60°08' E 026°29'0 0.0
2017-Oct-18 00:29N 60°08' E 026°29'0 0.0
2017-Oct-17 23:59N 60°08' E 026°29'0 0.0
2017-Oct-17 23:29N 60°08' E 026°29'0 0.0
2017-Oct-17 22:59N 60°08' E 026°29'0 0.0
2017-Oct-17 22:29N 60°08' E 026°29'0 0.0
2017-Oct-17 21:59N 60°08' E 026°29'0 0.0
2017-Oct-17 21:29N 60°08' E 026°29'0 0.0
2017-Oct-17 20:59N 60°08' E 026°29'0 0.0
2017-Oct-17 20:29N 60°08' E 026°29'0 0.0
2017-Oct-17 19:59N 60°08' E 026°29'0 0.0
2017-Oct-17 19:29N 60°08' E 026°29'0 0.0
2017-Oct-17 18:59N 60°08' E 026°29'0 0.0
2017-Oct-17 18:29N 60°08' E 026°29'0 0.0
2017-Oct-17 17:59N 60°08' E 026°29'0 0.1
2017-Oct-17 17:29N 60°08' E 026°29'0 0.1
2017-Oct-17 16:59N 60°08' E 026°29'0 0.1
2017-Oct-17 16:29N 60°08' E 026°29'0 0.1
2017-Oct-17 15:59N 60°08' E 026°29'0 0.0
2017-Oct-17 15:29N 60°08' E 026°29'0 0.0
2017-Oct-17 14:59N 60°08' E 026°29'0 0.1
2017-Oct-17 14:29N 60°08' E 026°29'0 0.0
2017-Oct-17 13:59N 60°08' E 026°29'0 0.0
2017-Oct-17 13:29N 60°08' E 026°29'0 0.1
2017-Oct-17 12:59N 60°08' E 026°29'0 0.0
2017-Oct-17 12:29N 60°08' E 026°29'0 0.0
2017-Oct-17 11:59N 60°08' E 026°29'0 0.0
2017-Oct-17 11:29N 60°08' E 026°29'0 0.0
2017-Oct-17 10:59N 60°08' E 026°29'0 0.0
2017-Oct-17 10:29N 60°08' E 026°29'0 0.0
2017-Oct-17 09:59N 60°08' E 026°29'0 0.0
2017-Oct-17 09:29N 60°08' E 026°29'0 0.0
2017-Oct-17 08:59N 60°08' E 026°29'0 0.0
2017-Oct-17 08:29N 60°08' E 026°29'0 0.0
2017-Oct-17 07:59N 60°08' E 026°29'0 0.0
2017-Oct-17 07:29N 60°08' E 026°29'0 0.0
2017-Oct-17 06:59N 60°08' E 026°29'0 0.0
2017-Oct-17 06:29N 60°08' E 026°29'0 0.0
2017-Oct-17 05:59N 60°08' E 026°29'0 0.0
2017-Oct-17 05:29N 60°08' E 026°29'0 0.0
2017-Oct-17 04:59N 60°08' E 026°29'0 0.0
2017-Oct-17 04:29N 60°08' E 026°29'0 0.0
2017-Oct-17 03:59N 60°08' E 026°29'0 0.0
2017-Oct-17 03:29N 60°08' E 026°29'0 0.0
2017-Oct-17 02:59N 60°08' E 026°29'0 0.0
2017-Oct-17 02:29N 60°08' E 026°29'0 0.0
2017-Oct-17 01:59N 60°08' E 026°29'0 0.0
2017-Oct-17 01:29N 60°08' E 026°29'0 0.0
2017-Oct-17 00:59N 60°08' E 026°29'0 0.0
2017-Oct-17 00:29N 60°08' E 026°29'0 0.0
2017-Oct-16 23:59N 60°08' E 026°29'0 0.0
2017-Oct-16 23:29N 60°08' E 026°29'0 0.0
2017-Oct-16 22:59N 60°08' E 026°29'0 0.0
2017-Oct-16 22:29N 60°08' E 026°29'0 0.0
2017-Oct-16 21:59N 60°08' E 026°29'0 0.0
2017-Oct-16 21:29N 60°08' E 026°29'0 0.0
2017-Oct-16 20:59N 60°08' E 026°29'0 0.0
2017-Oct-16 20:29N 60°08' E 026°29'0 0.0
2017-Oct-16 19:59N 60°08' E 026°29'0 0.0
2017-Oct-16 19:29N 60°08' E 026°29'0 0.0
2017-Oct-16 18:59N 60°08' E 026°29'0 0.0
2017-Oct-16 18:29N 60°08' E 026°29'0 0.0
2017-Oct-16 17:59N 60°08' E 026°29'0 0.0
2017-Oct-16 17:29N 60°08' E 026°29'0 0.0
2017-Oct-16 16:59N 60°08' E 026°29'0 0.1
2017-Oct-16 16:29N 60°08' E 026°29'0 0.0
2017-Oct-16 15:59N 60°08' E 026°29'0 0.0
2017-Oct-16 15:29N 60°08' E 026°29'0 0.0
2017-Oct-16 14:59N 60°08' E 026°29'0 0.0
2017-Oct-16 13:59N 60°08' E 026°29'0 0.0
2017-Oct-16 13:29N 60°08' E 026°29'0 0.0
2017-Oct-16 12:59N 60°08' E 026°29'0 0.0
2017-Oct-16 12:29N 60°08' E 026°29'0 0.0
2017-Oct-16 11:59N 60°08' E 026°29'0 0.0
2017-Oct-16 11:29N 60°08' E 026°29'0 0.0
2017-Oct-16 10:59N 60°08' E 026°29'0 0.0
2017-Oct-16 10:29N 60°08' E 026°29'0 0.0
2017-Oct-16 09:59N 60°08' E 026°29'0 0.0
2017-Oct-16 09:29N 60°08' E 026°29'0 0.0
2017-Oct-16 08:59N 60°08' E 026°29'0 0.0
2017-Oct-16 08:29N 60°08' E 026°29'0 0.0
2017-Oct-16 07:59N 60°08' E 026°29'0 0.0
2017-Oct-16 07:29N 60°08' E 026°29'0 0.0
2017-Oct-16 06:59N 60°08' E 026°29'0 0.0
2017-Oct-16 06:29N 60°08' E 026°29'0 0.0
2017-Oct-16 05:59N 60°08' E 026°28'0 0.0
2017-Oct-16 05:29N 60°08' E 026°28'0 0.1
2017-Oct-16 04:59N 60°08' E 026°28'0 0.1
2017-Oct-16 04:29N 60°08' E 026°28'0 0.0
2017-Oct-16 03:59N 60°08' E 026°28'0 0.1
2017-Oct-16 03:29N 60°08' E 026°28'0 0.1
2017-Oct-16 02:59N 60°08' E 026°29'0 0.0
2017-Oct-16 02:29N 60°08' E 026°29'0 0.1
2017-Oct-16 01:59N 60°08' E 026°29'0 0.0
2017-Oct-16 01:29N 60°08' E 026°29'0 0.0
2017-Oct-16 00:59N 60°08' E 026°29'0 0.1
2017-Oct-16 00:29N 60°08' E 026°29'0 0.1
2017-Oct-15 23:59N 60°08' E 026°29'0 0.0
2017-Oct-15 23:29N 60°08' E 026°29'0 0.0
2017-Oct-15 22:59N 60°08' E 026°29'0 0.2
2017-Oct-15 22:29N 60°08' E 026°29'0 0.2
2017-Oct-15 21:59N 60°08' E 026°28'0 0.3
2017-Oct-15 21:29N 60°08' E 026°29'0 0.0
2017-Oct-15 20:59N 60°08' E 026°29'0 0.0
2017-Oct-15 20:29N 60°08' E 026°29'0 0.1
2017-Oct-15 20:00N 60°08' E 026°29'0 0.0
2017-Oct-15 19:29N 60°08' E 026°29'0 0.0
2017-Oct-15 18:59N 60°08' E 026°29'0 0.0
2017-Oct-15 18:29N 60°08' E 026°29'0 0.0
2017-Oct-15 17:59N 60°08' E 026°29'0 0.0
2017-Oct-15 17:29N 60°08' E 026°29'0 0.0
2017-Oct-15 16:59N 60°08' E 026°29'0 0.0
2017-Oct-15 16:29N 60°08' E 026°29'0 0.0
2017-Oct-15 15:59N 60°08' E 026°29'0 0.0
2017-Oct-15 15:29N 60°08' E 026°29'0 0.0
2017-Oct-15 14:59N 60°08' E 026°29'0 0.0
2017-Oct-15 13:59N 60°08' E 026°29'0 0.0
2017-Oct-15 13:29N 60°08' E 026°29'0 0.0
2017-Oct-15 12:59N 60°08' E 026°29'0 0.0
2017-Oct-15 12:29N 60°08' E 026°29'0 0.1
2017-Oct-15 11:59N 60°08' E 026°29'0 0.0
2017-Oct-15 11:29N 60°08' E 026°29'0 0.0
2017-Oct-15 10:59N 60°08' E 026°29'0 0.0
2017-Oct-15 10:29N 60°08' E 026°29'0 0.0
2017-Oct-15 09:59N 60°08' E 026°29'0 0.0
2017-Oct-15 09:29N 60°08' E 026°29'0 0.0
2017-Oct-15 08:59N 60°08' E 026°29'0 0.0
2017-Oct-15 08:29N 60°08' E 026°29'0 0.0
2017-Oct-15 07:59N 60°08' E 026°29'0 0.0
2017-Oct-15 07:29N 60°08' E 026°29'0 0.0
2017-Oct-15 06:59N 60°08' E 026°29'0 0.0
2017-Oct-15 06:29N 60°08' E 026°29'0 0.0
2017-Oct-15 05:59N 60°08' E 026°29'0 0.0
2017-Oct-15 05:29N 60°08' E 026°29'0 0.0
2017-Oct-15 04:59N 60°08' E 026°29'0 0.0
2017-Oct-15 04:29N 60°08' E 026°29'0 0.0
2017-Oct-15 03:59N 60°08' E 026°29'0 0.0
2017-Oct-15 03:29N 60°08' E 026°29'0 0.0
2017-Oct-15 02:59N 60°08' E 026°29'0 0.0
2017-Oct-15 02:29N 60°08' E 026°29'0 0.0
2017-Oct-15 01:59N 60°08' E 026°29'0 0.0
2017-Oct-15 01:29N 60°08' E 026°29'0 0.0
2017-Oct-15 00:59N 60°08' E 026°29'0 0.0
2017-Oct-15 00:29N 60°08' E 026°29'0 0.0
2017-Oct-14 23:59N 60°08' E 026°29'0 0.0
2017-Oct-14 23:29N 60°08' E 026°29'0 0.0
2017-Oct-14 22:59N 60°08' E 026°29'0 0.0
2017-Oct-14 22:20N 60°08' E 026°29'0 0.0
2017-Oct-14 21:59N 60°08' E 026°29'0 0.1
2017-Oct-14 21:29N 60°08' E 026°29'0 0.1
2017-Oct-14 20:59N 60°08' E 026°29'0 0.2
2017-Oct-14 20:29N 60°08' E 026°28'0 0.1
2017-Oct-14 19:59N 60°08' E 026°28'0 0.0
2017-Oct-14 19:29N 60°08' E 026°28'0 0.0
2017-Oct-14 18:56N 60°08' E 026°28'0 0.0
2017-Oct-14 18:29N 60°08' E 026°28'0 0.0
2017-Oct-14 17:59N 60°08' E 026°28'0 0.0
2017-Oct-14 17:29N 60°08' E 026°28'0 0.0
2017-Oct-14 16:59N 60°08' E 026°28'0 0.0
2017-Oct-14 16:29N 60°08' E 026°28'0 0.0
2017-Oct-14 15:59N 60°08' E 026°28'0 0.0
2017-Oct-14 15:29N 60°08' E 026°28'0 0.0
2017-Oct-14 14:56N 60°08' E 026°28'0 0.0
2017-Oct-14 14:26N 60°08' E 026°28'0 0.0
2017-Oct-14 13:56N 60°08' E 026°28'0 0.0
2017-Oct-14 13:29N 60°08' E 026°28'0 0.0
2017-Oct-14 12:59N 60°08' E 026°28'0 0.0
2017-Oct-14 12:29N 60°08' E 026°28'0 0.0
2017-Oct-14 11:59N 60°08' E 026°28'0 0.1
2017-Oct-14 11:29N 60°08' E 026°28'0 0.0
2017-Oct-14 10:56N 60°08' E 026°28'0 0.0
2017-Oct-14 10:29N 60°08' E 026°28'0 0.0
2017-Oct-14 09:56N 60°08' E 026°28'0 0.1
2017-Oct-14 09:29N 60°08' E 026°28'0 0.1
2017-Oct-14 08:59N 60°08' E 026°28'0 0.1
2017-Oct-14 08:29N 60°08' E 026°28'0 0.0
2017-Oct-14 07:59N 60°08' E 026°28'0 0.1
2017-Oct-14 07:29N 60°08' E 026°28'0 0.0
2017-Oct-14 06:59N 60°08' E 026°28'0 0.0
2017-Oct-14 06:29N 60°08' E 026°28'0 0.0
2017-Oct-14 05:59N 60°08' E 026°28'0 0.0
2017-Oct-14 05:29N 60°08' E 026°28'0 0.0
2017-Oct-14 04:59N 60°08' E 026°28'0 0.0
2017-Oct-14 04:29N 60°08' E 026°28'0 0.0
2017-Oct-14 03:59N 60°08' E 026°28'0 0.0
2017-Oct-14 03:29N 60°08' E 026°28'0 0.0
2017-Oct-14 02:59N 60°08' E 026°28'0 0.0
2017-Oct-14 02:29N 60°08' E 026°28'0 0.0
2017-Oct-14 01:59N 60°08' E 026°28'0 0.0
2017-Oct-14 00:05N 60°08' E 026°28'0 0.0
2017-Oct-13 23:59N 60°08' E 026°28'0 0.0
2017-Oct-13 23:29N 60°08' E 026°28'0 0.0
2017-Oct-13 22:59N 60°08' E 026°28'0 0.0
2017-Oct-13 22:29N 60°08' E 026°28'0 0.0
2017-Oct-13 21:59N 60°08' E 026°28'0 0.0
2017-Oct-13 21:29N 60°08' E 026°28'0 0.0
2017-Oct-13 20:59N 60°08' E 026°28'0 0.0
2017-Oct-13 20:29N 60°08' E 026°28'0 0.0
2017-Oct-13 19:59N 60°08' E 026°28'0 0.0
2017-Oct-13 19:29N 60°08' E 026°28'0 0.0
2017-Oct-13 18:59N 60°08' E 026°28'0 0.0
2017-Oct-13 18:29N 60°08' E 026°28'0 0.0
2017-Oct-13 17:59N 60°08' E 026°28'0 0.0
2017-Oct-13 17:29N 60°08' E 026°28'0 0.0
2017-Oct-13 16:59N 60°08' E 026°28'0 0.0
2017-Oct-13 16:29N 60°08' E 026°28'0 0.0
2017-Oct-13 15:59N 60°08' E 026°28'0 0.0
2017-Oct-13 15:29N 60°08' E 026°28'0 0.0
2017-Oct-13 14:59N 60°08' E 026°28'0 0.0
2017-Oct-13 14:29N 60°08' E 026°28'0 0.0
2017-Oct-13 13:59N 60°08' E 026°28'0 0.0
2017-Oct-13 13:29N 60°08' E 026°28'0 0.0
2017-Oct-13 12:56N 60°08' E 026°28'0 0.0
2017-Oct-13 12:29N 60°08' E 026°28'0 0.0
2017-Oct-13 11:59N 60°08' E 026°28'0 0.0
2017-Oct-13 11:29N 60°08' E 026°28'0 0.0
2017-Oct-13 10:59N 60°08' E 026°28'0 0.0
2017-Oct-13 10:29N 60°08' E 026°28'0 0.0
2017-Oct-13 09:59N 60°08' E 026°28'0 0.0
2017-Oct-13 09:29N 60°08' E 026°28'0 0.0
2017-Oct-13 08:59N 60°08' E 026°28'0 0.0
2017-Oct-13 08:29N 60°08' E 026°28'0 0.0
2017-Oct-13 08:00N 60°08' E 026°28'0 0.0
2017-Oct-13 07:28N 60°08' E 026°28'0 0.0
2017-Oct-13 07:00N 60°08' E 026°28'0 0.0
2017-Oct-13 06:30N 60°08' E 026°28'0 0.0
2017-Oct-13 06:00N 60°08' E 026°28'0 0.0
2017-Oct-13 05:30N 60°08' E 026°28'0 0.0
2017-Oct-13 04:59N 60°08' E 026°28'0 0.0
2017-Oct-13 04:29N 60°08' E 026°28'0 0.0
2017-Oct-13 03:59N 60°08' E 026°28'0 0.0
2017-Oct-13 03:29N 60°08' E 026°28'  

Dump ship's entire track history